createdAt,value
2018-12-14T00:00:23.484Z,6.54
2018-12-14T00:01:23.421Z,6.54
2018-12-14T00:02:23.361Z,6.46
2018-12-14T00:03:23.299Z,6.50
2018-12-14T00:04:23.237Z,6.50
2018-12-14T00:05:23.179Z,6.53
2018-12-14T00:06:23.115Z,6.43
2018-12-14T00:07:23.053Z,6.47
2018-12-14T00:08:22.991Z,6.51
2018-12-14T00:09:22.929Z,6.41
2018-12-14T00:10:22.870Z,6.51
2018-12-14T00:11:22.808Z,6.50
2018-12-14T00:12:22.744Z,6.50
2018-12-14T00:13:22.683Z,6.41
2018-12-14T00:14:22.623Z,6.46
2018-12-14T00:15:22.561Z,6.50
2018-12-14T00:16:22.499Z,6.50
2018-12-14T00:17:22.440Z,6.43
2018-12-14T00:18:22.376Z,6.51
2018-12-14T00:19:22.317Z,6.44
2018-12-14T00:20:22.252Z,6.41
2018-12-14T00:21:22.190Z,6.47
2018-12-14T00:22:22.134Z,6.44
2018-12-14T00:23:22.071Z,6.43
2018-12-14T00:24:22.005Z,6.44
2018-12-14T00:25:21.949Z,6.50
2018-12-14T00:26:21.884Z,6.50
2018-12-14T00:27:21.822Z,6.48
2018-12-14T00:28:21.760Z,6.50
2018-12-14T00:29:21.698Z,6.47
2018-12-14T00:30:21.639Z,6.50
2018-12-14T00:31:21.576Z,6.41
2018-12-14T00:32:21.513Z,6.50
2018-12-14T00:33:21.454Z,6.47
2018-12-14T00:34:21.390Z,6.47
2018-12-14T00:35:21.332Z,6.38
2018-12-14T00:36:21.267Z,6.50
2018-12-14T00:37:21.206Z,6.43
2018-12-14T00:38:21.145Z,6.41
2018-12-14T00:39:21.084Z,6.43
2018-12-14T00:40:21.020Z,6.44
2018-12-14T00:41:20.960Z,6.46
2018-12-14T00:42:20.899Z,6.40
2018-12-14T00:43:20.837Z,6.43
2018-12-14T00:44:20.775Z,6.40
2018-12-14T00:45:20.714Z,6.40
2018-12-14T00:46:20.653Z,6.40
2018-12-14T00:47:20.590Z,6.41
2018-12-14T00:48:20.529Z,6.46
2018-12-14T00:49:20.469Z,6.40
2018-12-14T00:50:20.406Z,6.41
2018-12-14T00:51:20.346Z,6.41
2018-12-14T00:52:20.282Z,6.38
2018-12-14T00:53:20.221Z,6.36
2018-12-14T00:54:20.163Z,6.38
2018-12-14T00:55:20.099Z,6.40
2018-12-14T00:56:20.037Z,6.40
2018-12-14T00:57:19.976Z,6.40
2018-12-14T00:58:19.917Z,6.36
2018-12-14T00:59:19.852Z,6.43
2018-12-14T01:00:19.789Z,6.47
2018-12-14T01:01:19.729Z,6.40
2018-12-14T01:02:19.667Z,6.41
2018-12-14T01:03:19.606Z,6.35
2018-12-14T01:04:19.543Z,6.43
2018-12-14T01:05:19.482Z,6.41
2018-12-14T01:06:19.421Z,6.36
2018-12-14T01:07:19.360Z,6.44
2018-12-14T01:08:19.297Z,6.38
2018-12-14T01:09:19.239Z,6.44
2018-12-14T01:10:19.174Z,6.44
2018-12-14T01:11:19.113Z,6.40
2018-12-14T01:12:19.054Z,6.43
2018-12-14T01:13:18.991Z,6.40
2018-12-14T01:14:18.933Z,6.43
2018-12-14T01:15:18.867Z,6.41
2018-12-14T01:16:18.806Z,6.43
2018-12-14T01:17:18.744Z,6.38
2018-12-14T01:18:18.685Z,6.41
2018-12-14T01:19:18.621Z,6.36
2018-12-14T01:20:18.562Z,6.38
2018-12-14T01:21:18.495Z,6.35
2018-12-14T01:22:18.439Z,6.38
2018-12-14T01:23:18.376Z,6.41
2018-12-14T01:24:18.311Z,6.38
2018-12-14T01:25:18.250Z,6.36
2018-12-14T01:26:18.189Z,6.44
2018-12-14T01:27:18.127Z,6.38
2018-12-14T01:28:18.065Z,6.40
2018-12-14T01:29:18.002Z,6.36
2018-12-14T01:30:17.945Z,6.41
2018-12-14T01:31:17.881Z,6.35
2018-12-14T01:32:17.822Z,6.46
2018-12-14T01:33:17.767Z,6.35
2018-12-14T01:34:17.695Z,6.41
2018-12-14T01:35:17.636Z,6.36
2018-12-14T01:36:17.572Z,6.40
2018-12-14T01:37:17.510Z,6.40
2018-12-14T01:38:17.449Z,6.38
2018-12-14T01:39:17.387Z,6.40
2018-12-14T01:40:17.325Z,6.41
2018-12-14T01:41:17.262Z,6.38
2018-12-14T01:42:17.205Z,6.35
2018-12-14T01:43:17.141Z,6.35
2018-12-14T01:44:17.077Z,6.38
2018-12-14T01:45:17.017Z,6.40
2018-12-14T01:46:16.956Z,6.26
2018-12-14T01:47:16.895Z,6.26
2018-12-14T01:48:16.832Z,6.30
2018-12-14T01:49:16.770Z,6.26
2018-12-14T01:50:16.709Z,6.29
2018-12-14T01:51:16.647Z,6.32
2018-12-14T01:52:16.584Z,6.29
2018-12-14T01:53:16.528Z,6.26
2018-12-14T01:54:16.462Z,6.30
2018-12-14T01:55:16.402Z,6.26
2018-12-14T01:56:16.338Z,6.29
2018-12-14T01:57:16.277Z,6.26
2018-12-14T01:58:16.215Z,6.22
2018-12-14T01:59:16.157Z,6.22
2018-12-14T02:00:16.092Z,6.33
2018-12-14T02:01:16.030Z,6.29
2018-12-14T02:02:15.969Z,6.22
2018-12-14T02:03:15.908Z,6.26
2018-12-14T02:04:15.845Z,6.32
2018-12-14T02:05:15.785Z,6.28
2018-12-14T02:06:15.722Z,6.28
2018-12-14T02:07:15.661Z,6.36
2018-12-14T02:08:15.601Z,6.28
2018-12-14T02:09:15.536Z,6.32
2018-12-14T02:10:15.475Z,6.26
2018-12-14T02:11:15.415Z,6.41
2018-12-14T02:12:15.353Z,6.32
2018-12-14T02:13:15.290Z,6.26
2018-12-14T02:14:15.230Z,6.26
2018-12-14T02:15:15.167Z,6.26
2018-12-14T02:16:15.105Z,6.26
2018-12-14T02:17:15.043Z,6.25
2018-12-14T02:18:14.981Z,6.28
2018-12-14T02:19:14.920Z,6.30
2018-12-14T02:20:14.858Z,6.25
2018-12-14T02:21:14.798Z,6.29
2018-12-14T02:22:14.736Z,6.28
2018-12-14T02:23:14.674Z,6.29
2018-12-14T02:24:14.612Z,6.26
2018-12-14T02:25:14.550Z,6.32
2018-12-14T02:26:14.489Z,6.35
2018-12-14T02:27:14.427Z,6.26
2018-12-14T02:28:14.365Z,6.32
2018-12-14T02:29:14.303Z,6.32
2018-12-14T02:30:14.249Z,6.25
2018-12-14T02:31:14.182Z,6.41
2018-12-14T02:32:14.119Z,6.25
2018-12-14T02:33:14.057Z,6.26
2018-12-14T02:34:14.003Z,6.40
2018-12-14T02:35:13.943Z,6.25
2018-12-14T02:36:13.873Z,6.29
2018-12-14T02:37:13.811Z,6.25
2018-12-14T02:38:13.752Z,6.32
2018-12-14T02:39:13.717Z,6.29
2018-12-14T02:40:13.626Z,6.29
2018-12-14T02:41:13.563Z,6.29
2018-12-14T02:42:19.237Z,6.19
2018-12-14T02:43:13.444Z,6.28
2018-12-14T02:44:13.379Z,6.25
2018-12-14T02:45:13.317Z,6.22
2018-12-14T02:46:13.258Z,6.26
2018-12-14T02:47:13.196Z,6.30
2018-12-14T02:48:13.132Z,6.26
2018-12-14T02:49:13.071Z,6.30
2018-12-14T02:50:13.009Z,6.22
2018-12-14T02:51:12.948Z,6.29
2018-12-14T02:52:12.891Z,6.28
2018-12-14T02:53:12.827Z,6.26
2018-12-14T02:54:12.765Z,6.28
2018-12-14T02:55:12.701Z,6.26
2018-12-14T02:56:12.656Z,6.22
2018-12-14T02:57:12.638Z,6.22
2018-12-14T02:58:12.517Z,6.25
2018-12-14T02:59:12.455Z,6.22
2018-12-14T03:00:12.393Z,6.22
2018-12-14T03:01:12.333Z,6.40
2018-12-14T03:02:12.271Z,6.35
2018-12-14T03:03:12.209Z,6.30
2018-12-14T03:04:12.145Z,6.26
2018-12-14T03:05:12.085Z,6.25
2018-12-14T03:06:12.023Z,6.28
2018-12-14T03:07:11.962Z,6.25
2018-12-14T03:08:11.898Z,6.28
2018-12-14T03:09:11.837Z,6.36
2018-12-14T03:10:11.777Z,6.28
2018-12-14T03:11:11.716Z,6.38
2018-12-14T03:12:11.657Z,6.29
2018-12-14T03:13:11.595Z,6.36
2018-12-14T03:14:11.530Z,6.38
2018-12-14T03:15:11.477Z,6.30
2018-12-14T03:16:11.408Z,6.29
2018-12-14T03:17:11.347Z,6.22
2018-12-14T03:18:11.289Z,6.41
2018-12-14T03:19:11.226Z,6.29
2018-12-14T03:20:11.160Z,6.28
2018-12-14T03:21:11.099Z,6.35
2018-12-14T03:22:11.039Z,6.35
2018-12-14T03:23:10.975Z,6.36
2018-12-14T03:24:10.916Z,6.29
2018-12-14T03:25:10.852Z,6.29
2018-12-14T03:26:10.792Z,6.28
2018-12-14T03:27:10.729Z,6.29
2018-12-14T03:28:10.672Z,6.35
2018-12-14T03:29:10.604Z,6.26
2018-12-14T03:30:10.548Z,6.41
2018-12-14T03:31:10.487Z,6.38
2018-12-14T03:32:10.433Z,6.25
2018-12-14T03:33:10.379Z,6.38
2018-12-14T03:34:10.298Z,6.29
2018-12-14T03:35:10.236Z,6.33
2018-12-14T03:36:10.175Z,6.40
2018-12-14T03:37:10.111Z,6.38
2018-12-14T03:38:10.050Z,6.36
2018-12-14T03:39:09.989Z,6.29
2018-12-14T03:40:09.933Z,6.29
2018-12-14T03:41:09.866Z,6.36
2018-12-14T03:42:09.810Z,6.33
2018-12-14T03:43:09.742Z,6.38
2018-12-14T03:44:09.681Z,6.32
2018-12-14T03:45:09.622Z,6.32
2018-12-14T03:46:09.563Z,6.26
2018-12-14T03:47:09.496Z,6.19
2018-12-14T03:48:09.437Z,6.26
2018-12-14T03:49:09.372Z,6.22
2018-12-14T03:50:09.311Z,6.29
2018-12-14T03:51:09.252Z,6.30
2018-12-14T03:52:09.188Z,6.25
2018-12-14T03:53:09.129Z,6.29
2018-12-14T03:54:09.455Z,6.35
2018-12-14T03:55:09.005Z,6.29
2018-12-14T03:56:08.941Z,6.36
2018-12-14T03:57:08.879Z,6.22
2018-12-14T03:58:08.818Z,6.41
2018-12-14T03:59:08.756Z,6.38
2018-12-14T04:00:08.699Z,6.29
2018-12-14T04:01:08.632Z,6.28
2018-12-14T04:02:08.573Z,6.25
2018-12-14T04:03:08.511Z,6.32
2018-12-14T04:04:08.464Z,6.33
2018-12-14T04:05:08.387Z,6.29
2018-12-14T04:06:08.325Z,6.30
2018-12-14T04:07:08.264Z,6.22
2018-12-14T04:08:08.204Z,6.22
2018-12-14T04:09:08.140Z,6.32
2018-12-14T04:10:08.084Z,6.26
2018-12-14T04:11:08.019Z,6.26
2018-12-14T04:12:07.954Z,6.33
2018-12-14T04:13:07.893Z,6.26
2018-12-14T04:14:07.831Z,6.25
2018-12-14T04:15:07.771Z,6.28
2018-12-14T04:16:07.707Z,6.22
2018-12-14T04:17:07.648Z,6.21
2018-12-14T04:18:07.585Z,6.26
2018-12-14T04:19:07.525Z,6.26
2018-12-14T04:20:07.461Z,6.22
2018-12-14T04:21:07.403Z,6.28
2018-12-14T04:22:07.338Z,6.29
2018-12-14T04:23:07.278Z,6.30
2018-12-14T04:24:07.214Z,6.26
2018-12-14T04:25:07.153Z,6.25
2018-12-14T04:26:07.091Z,6.19
2018-12-14T04:27:07.030Z,6.25
2018-12-14T04:28:06.968Z,6.28
2018-12-14T04:29:06.907Z,6.28
2018-12-14T04:30:06.844Z,6.22
2018-12-14T04:31:06.786Z,6.26
2018-12-14T04:32:06.721Z,6.28
2018-12-14T04:33:06.660Z,6.32
2018-12-14T04:34:06.599Z,6.26
2018-12-14T04:35:06.541Z,6.28
2018-12-14T04:36:06.474Z,6.25
2018-12-14T04:37:06.412Z,6.26
2018-12-14T04:38:06.352Z,6.25
2018-12-14T04:39:06.290Z,6.26
2018-12-14T04:40:06.229Z,6.30
2018-12-14T04:41:06.166Z,6.32
2018-12-14T04:42:06.104Z,6.25
2018-12-14T04:43:06.042Z,6.21
2018-12-14T04:44:05.980Z,6.26
2018-12-14T04:45:05.920Z,6.32
2018-12-14T04:46:05.859Z,6.26
2018-12-14T04:47:05.801Z,6.25
2018-12-14T04:48:05.735Z,6.33
2018-12-14T04:49:05.672Z,6.36
2018-12-14T04:50:05.611Z,6.25
2018-12-14T04:51:05.550Z,6.26
2018-12-14T04:52:05.488Z,6.22
2018-12-14T04:53:05.427Z,6.22
2018-12-14T04:54:05.364Z,6.38
2018-12-14T04:55:05.303Z,6.29
2018-12-14T04:56:05.242Z,6.22
2018-12-14T04:57:05.181Z,6.22
2018-12-14T04:58:05.119Z,6.28
2018-12-14T04:59:05.063Z,6.29
2018-12-14T05:00:04.995Z,6.21
2018-12-14T05:01:04.933Z,6.32
2018-12-14T05:02:09.443Z,6.26
2018-12-14T05:03:04.811Z,6.28
2018-12-14T05:04:04.748Z,6.25
2018-12-14T05:05:04.693Z,6.22
2018-12-14T05:06:04.626Z,6.26
2018-12-14T05:07:04.566Z,6.26
2018-12-14T05:08:04.504Z,6.28
2018-12-14T05:09:04.439Z,6.26
2018-12-14T05:10:04.381Z,6.30
2018-12-14T05:11:04.320Z,6.26
2018-12-14T05:12:04.254Z,6.28
2018-12-14T05:13:04.199Z,6.25
2018-12-14T05:14:04.131Z,6.25
2018-12-14T05:15:04.074Z,6.25
2018-12-14T05:16:04.007Z,6.28
2018-12-14T05:17:03.946Z,6.29
2018-12-14T05:18:03.888Z,6.29
2018-12-14T05:19:03.828Z,6.30
2018-12-14T05:20:03.761Z,6.22
2018-12-14T05:21:03.698Z,6.25
2018-12-14T05:22:03.637Z,6.29
2018-12-14T05:23:03.576Z,6.22
2018-12-14T05:24:03.513Z,6.21
2018-12-14T05:25:03.451Z,6.25
2018-12-14T05:26:03.391Z,6.22
2018-12-14T05:27:03.331Z,6.22
2018-12-14T05:28:03.267Z,6.25
2018-12-14T05:29:03.205Z,6.21
2018-12-14T05:30:03.146Z,6.22
2018-12-14T05:31:03.084Z,6.18
2018-12-14T05:32:03.019Z,6.29
2018-12-14T05:33:02.958Z,6.26
2018-12-14T05:34:02.897Z,6.22
2018-12-14T05:35:02.837Z,6.19
2018-12-14T05:36:02.772Z,6.22
2018-12-14T05:37:02.711Z,6.22
2018-12-14T05:38:02.649Z,6.19
2018-12-14T05:39:02.592Z,6.22
2018-12-14T05:40:02.525Z,6.26
2018-12-14T05:41:02.465Z,6.21
2018-12-14T05:42:02.408Z,6.22
2018-12-14T05:43:02.776Z,6.22
2018-12-14T05:44:02.282Z,6.19
2018-12-14T05:45:02.216Z,6.26
2018-12-14T05:46:02.156Z,6.26
2018-12-14T05:47:02.097Z,6.22
2018-12-14T05:48:02.031Z,6.21
2018-12-14T05:49:01.971Z,6.26
2018-12-14T05:50:01.911Z,6.21
2018-12-14T05:51:01.848Z,6.25
2018-12-14T05:52:01.785Z,6.21
2018-12-14T05:53:01.725Z,6.29
2018-12-14T05:54:01.662Z,6.25
2018-12-14T05:55:01.600Z,6.21
2018-12-14T05:56:01.540Z,6.22
2018-12-14T05:57:01.477Z,6.21
2018-12-14T05:58:01.416Z,6.29
2018-12-14T05:59:01.356Z,6.21
2018-12-14T06:00:01.291Z,6.25
2018-12-14T06:01:01.231Z,6.26
2018-12-14T06:02:01.170Z,6.32
2018-12-14T06:03:01.106Z,6.25
2018-12-14T06:04:01.045Z,6.26
2018-12-14T06:05:00.983Z,6.21
2018-12-14T06:06:00.921Z,6.25
2018-12-14T06:07:00.860Z,6.29
2018-12-14T06:08:00.800Z,6.21
2018-12-14T06:09:00.736Z,6.25
2018-12-14T06:10:00.680Z,6.21
2018-12-14T06:11:00.613Z,6.29
2018-12-14T06:12:00.550Z,6.28
2018-12-14T06:13:00.493Z,6.22
2018-12-14T06:14:00.428Z,6.25
2018-12-14T06:15:00.367Z,6.19
2018-12-14T06:16:00.313Z,6.21
2018-12-14T06:17:00.246Z,6.21
2018-12-14T06:18:00.184Z,6.25
2018-12-14T06:19:00.120Z,6.25
2018-12-14T06:20:00.056Z,6.22
2018-12-14T06:21:00.227Z,6.21
2018-12-14T06:21:59.940Z,6.26
2018-12-14T06:22:59.875Z,6.21
2018-12-14T06:23:59.812Z,6.25
2018-12-14T06:24:59.749Z,6.13
2018-12-14T06:25:59.686Z,6.22
2018-12-14T06:26:59.629Z,6.21
2018-12-14T06:27:59.563Z,6.11
2018-12-14T06:28:59.500Z,6.22
2018-12-14T06:29:59.439Z,6.14
2018-12-14T06:30:59.378Z,6.22
2018-12-14T06:31:59.316Z,6.21
2018-12-14T06:32:59.255Z,6.18
2018-12-14T06:33:59.194Z,6.22
2018-12-14T06:34:59.131Z,6.18
2018-12-14T06:35:59.068Z,6.11
2018-12-14T06:36:59.007Z,6.25
2018-12-14T06:37:58.996Z,6.19
2018-12-14T06:38:58.884Z,6.22
2018-12-14T06:39:58.822Z,6.19
2018-12-14T06:40:58.760Z,6.26
2018-12-14T06:41:58.700Z,6.21
2018-12-14T06:42:58.636Z,6.19
2018-12-14T06:43:58.577Z,6.25
2018-12-14T06:44:58.513Z,6.22
2018-12-14T06:45:58.452Z,6.21
2018-12-14T06:46:58.390Z,6.19
2018-12-14T06:47:58.327Z,6.25
2018-12-14T06:48:58.267Z,6.32
2018-12-14T06:49:58.204Z,6.25
2018-12-14T06:50:58.143Z,6.28
2018-12-14T06:51:58.080Z,6.21
2018-12-14T06:52:58.019Z,6.22
2018-12-14T06:53:57.958Z,6.21
2018-12-14T06:54:57.897Z,6.29
2018-12-14T06:55:57.833Z,6.25
2018-12-14T06:56:57.773Z,6.29
2018-12-14T06:57:57.713Z,6.30
2018-12-14T06:58:57.654Z,6.25
2018-12-14T06:59:57.586Z,6.29
2018-12-14T07:00:57.525Z,6.26
2018-12-14T07:01:57.468Z,6.21
2018-12-14T07:02:57.404Z,6.22
2018-12-14T07:03:57.343Z,6.28
2018-12-14T07:04:57.282Z,6.22
2018-12-14T07:05:57.221Z,6.28
2018-12-14T07:06:57.156Z,6.26
2018-12-14T07:07:57.092Z,6.22
2018-12-14T07:08:57.030Z,6.25
2018-12-14T07:09:56.969Z,6.21
2018-12-14T07:10:56.908Z,6.26
2018-12-14T07:11:56.844Z,6.21
2018-12-14T07:12:56.784Z,6.33
2018-12-14T07:13:56.724Z,6.30
2018-12-14T07:14:56.663Z,6.29
2018-12-14T07:15:56.602Z,6.29
2018-12-14T07:16:56.536Z,6.22
2018-12-14T07:17:56.476Z,6.25
2018-12-14T07:18:56.415Z,6.29
2018-12-14T07:19:56.352Z,6.28
2018-12-14T07:20:56.292Z,6.28
2018-12-14T07:21:56.231Z,6.28
2018-12-14T07:22:56.166Z,6.26
2018-12-14T07:23:56.104Z,6.22
2018-12-14T07:24:56.042Z,6.29
2018-12-14T07:25:55.983Z,6.25
2018-12-14T07:26:55.924Z,6.28
2018-12-14T07:27:55.857Z,6.26
2018-12-14T07:28:55.796Z,6.30
2018-12-14T07:29:55.738Z,6.25
2018-12-14T07:30:55.678Z,6.28
2018-12-14T07:31:55.611Z,6.22
2018-12-14T07:32:55.552Z,6.25
2018-12-14T07:33:55.489Z,6.25
2018-12-14T07:34:55.432Z,6.29
2018-12-14T07:35:55.365Z,6.25
2018-12-14T07:36:55.303Z,6.26
2018-12-14T07:37:55.241Z,6.26
2018-12-14T07:38:55.180Z,6.25
2018-12-14T07:39:55.121Z,6.26
2018-12-14T07:40:55.057Z,6.28
2018-12-14T07:41:54.993Z,6.25
2018-12-14T07:42:54.932Z,6.19
2018-12-14T07:43:54.869Z,6.21
2018-12-14T07:44:54.860Z,6.19
2018-12-14T07:45:54.750Z,6.11
2018-12-14T07:46:54.689Z,6.25
2018-12-14T07:47:54.623Z,6.22
2018-12-14T07:48:54.561Z,6.22
2018-12-14T07:49:54.499Z,6.16
2018-12-14T07:50:54.463Z,6.16
2018-12-14T07:51:54.395Z,6.21
2018-12-14T07:52:54.314Z,6.11
2018-12-14T07:53:54.253Z,6.13
2018-12-14T07:54:54.207Z,6.16
2018-12-14T07:55:54.130Z,6.16
2018-12-14T07:56:54.068Z,6.14
2018-12-14T07:57:54.006Z,6.14
2018-12-14T07:58:53.944Z,6.14
2018-12-14T07:59:53.882Z,6.11
2018-12-14T08:00:53.820Z,6.16
2018-12-14T08:01:53.759Z,6.21
2018-12-14T08:02:53.697Z,6.09
2018-12-14T08:03:53.634Z,6.16
2018-12-14T08:04:53.573Z,6.16
2018-12-14T08:05:53.512Z,6.16
2018-12-14T08:06:53.450Z,6.18
2018-12-14T08:07:53.389Z,6.11
2018-12-14T08:08:53.341Z,6.16
2018-12-14T08:09:53.266Z,6.18
2018-12-14T08:10:53.203Z,6.16
2018-12-14T08:11:53.141Z,6.16
2018-12-14T08:12:53.079Z,6.21
2018-12-14T08:13:53.018Z,6.16
2018-12-14T08:14:52.956Z,6.18
2018-12-14T08:15:52.896Z,6.19
2018-12-14T08:16:52.832Z,6.18
2018-12-14T08:17:52.771Z,6.14
2018-12-14T08:18:52.712Z,6.18
2018-12-14T08:19:52.650Z,6.14
2018-12-14T08:20:52.586Z,6.22
2018-12-14T08:21:52.524Z,6.22
2018-12-14T08:22:52.463Z,6.11
2018-12-14T08:23:52.400Z,6.18
2018-12-14T08:24:52.347Z,6.14
2018-12-14T08:25:52.279Z,6.14
2018-12-14T08:26:52.215Z,6.14
2018-12-14T08:27:52.155Z,6.16
2018-12-14T08:28:52.092Z,6.13
2018-12-14T08:29:52.031Z,6.11
2018-12-14T08:30:51.969Z,6.16
2018-12-14T08:31:51.906Z,6.18
2018-12-14T08:32:51.844Z,6.14
2018-12-14T08:33:51.782Z,6.14
2018-12-14T08:34:51.721Z,6.18
2018-12-14T08:35:51.659Z,6.21
2018-12-14T08:36:51.596Z,6.11
2018-12-14T08:37:51.535Z,6.19
2018-12-14T08:38:51.476Z,6.18
2018-12-14T08:39:51.411Z,6.13
2018-12-14T08:40:51.349Z,6.19
2018-12-14T08:41:51.289Z,6.11
2018-12-14T08:42:51.230Z,6.13
2018-12-14T08:43:51.168Z,6.07
2018-12-14T08:44:51.112Z,6.19
2018-12-14T08:45:51.047Z,6.18
2018-12-14T08:46:50.987Z,6.11
2018-12-14T08:47:50.917Z,6.11
2018-12-14T08:48:50.855Z,6.14
2018-12-14T08:49:50.798Z,6.18
2018-12-14T08:50:50.741Z,6.18
2018-12-14T08:51:50.671Z,6.14
2018-12-14T08:52:50.611Z,6.13
2018-12-14T08:53:50.548Z,6.10
2018-12-14T08:54:50.486Z,6.25
2018-12-14T08:55:50.424Z,6.11
2018-12-14T08:56:50.361Z,6.22
2018-12-14T08:57:50.300Z,6.14
2018-12-14T08:58:50.240Z,6.16
2018-12-14T08:59:50.175Z,6.03
2018-12-14T09:00:50.114Z,6.18
2018-12-14T09:01:50.052Z,6.11
2018-12-14T09:02:49.991Z,6.16
2018-12-14T09:03:49.929Z,6.07
2018-12-14T09:04:49.875Z,6.16
2018-12-14T09:05:49.805Z,6.19
2018-12-14T09:06:49.743Z,6.19
2018-12-14T09:07:49.681Z,6.13
2018-12-14T09:08:49.619Z,6.19
2018-12-14T09:09:49.558Z,6.16
2018-12-14T09:10:49.496Z,6.16
2018-12-14T09:11:49.434Z,6.18
2018-12-14T09:12:49.371Z,6.18
2018-12-14T09:13:49.310Z,6.18
2018-12-14T09:14:49.253Z,6.18
2018-12-14T09:15:49.186Z,6.11
2018-12-14T09:16:49.125Z,6.10
2018-12-14T09:17:49.064Z,6.16
2018-12-14T09:18:49.002Z,6.11
2018-12-14T09:19:48.941Z,6.22
2018-12-14T09:20:48.879Z,6.16
2018-12-14T09:21:48.816Z,6.18
2018-12-14T09:22:48.754Z,6.16
2018-12-14T09:23:48.691Z,6.16
2018-12-14T09:24:48.636Z,6.18
2018-12-14T09:25:48.570Z,6.13
2018-12-14T09:26:48.509Z,6.14
2018-12-14T09:27:48.446Z,6.16
2018-12-14T09:28:48.384Z,6.18
2018-12-14T09:29:48.323Z,6.16
2018-12-14T09:30:48.265Z,6.14
2018-12-14T09:31:48.197Z,6.13
2018-12-14T09:32:48.136Z,6.14
2018-12-14T09:33:48.076Z,6.16
2018-12-14T09:34:48.015Z,6.11
2018-12-14T09:35:47.950Z,6.13
2018-12-14T09:36:47.889Z,6.13
2018-12-14T09:37:47.827Z,6.14
2018-12-14T09:38:47.766Z,6.18
2018-12-14T09:39:47.704Z,6.14
2018-12-14T09:40:47.641Z,6.18
2018-12-14T09:41:47.580Z,6.14
2018-12-14T09:42:47.519Z,6.10
2018-12-14T09:43:47.455Z,6.21
2018-12-14T09:44:47.395Z,6.14
2018-12-14T09:45:47.337Z,6.14
2018-12-14T09:46:47.272Z,6.16
2018-12-14T09:47:47.208Z,6.14
2018-12-14T09:48:47.147Z,6.19
2018-12-14T09:49:47.086Z,6.22
2018-12-14T09:50:47.025Z,6.19
2018-12-14T09:51:46.962Z,6.14
2018-12-14T09:52:46.905Z,6.19
2018-12-14T09:53:46.838Z,6.13
2018-12-14T09:54:46.776Z,6.13
2018-12-14T09:55:46.714Z,6.21
2018-12-14T09:56:46.655Z,6.18
2018-12-14T09:57:46.591Z,6.11
2018-12-14T09:58:46.529Z,6.18
2018-12-14T09:59:46.472Z,6.13
2018-12-14T10:00:46.405Z,6.19
2018-12-14T10:01:46.345Z,6.19
2018-12-14T10:02:46.286Z,6.22
2018-12-14T10:03:46.220Z,6.19
2018-12-14T10:04:46.157Z,6.21
2018-12-14T10:05:46.097Z,6.18
2018-12-14T10:06:46.036Z,6.14
2018-12-14T10:07:47.020Z,6.16
2018-12-14T10:08:45.910Z,6.21
2018-12-14T10:09:45.848Z,6.22
2018-12-14T10:10:45.793Z,6.16
2018-12-14T10:11:45.725Z,6.18
2018-12-14T10:12:45.663Z,6.22
2018-12-14T10:13:45.606Z,6.16
2018-12-14T10:14:45.541Z,6.10
2018-12-14T10:15:45.478Z,6.21
2018-12-14T10:16:45.421Z,6.14
2018-12-14T10:17:45.357Z,6.10
2018-12-14T10:18:45.299Z,6.22
2018-12-14T10:19:45.231Z,6.13
2018-12-14T10:20:45.170Z,6.22
2018-12-14T10:21:45.113Z,6.13
2018-12-14T10:22:45.047Z,6.21
2018-12-14T10:23:44.987Z,6.21
2018-12-14T10:24:44.924Z,6.16
2018-12-14T10:25:44.863Z,6.18
2018-12-14T10:26:44.804Z,6.21
2018-12-14T10:27:44.737Z,6.18
2018-12-14T10:28:44.674Z,6.25
2018-12-14T10:29:44.613Z,6.16
2018-12-14T10:30:44.553Z,6.21
2018-12-14T10:31:44.489Z,6.25
2018-12-14T10:32:44.428Z,6.21
2018-12-14T10:33:44.366Z,6.14
2018-12-14T10:34:44.303Z,6.25
2018-12-14T10:35:44.241Z,6.26
2018-12-14T10:36:44.180Z,6.18
2018-12-14T10:37:44.118Z,6.28
2018-12-14T10:38:44.058Z,6.16
2018-12-14T10:39:43.994Z,6.21
2018-12-14T10:40:43.933Z,6.18
2018-12-14T10:41:43.871Z,6.19
2018-12-14T10:42:43.811Z,6.22
2018-12-14T10:43:43.747Z,6.25
2018-12-14T10:44:43.687Z,6.22
2018-12-14T10:45:43.625Z,6.21
2018-12-14T10:46:43.562Z,6.22
2018-12-14T10:47:43.500Z,6.26
2018-12-14T10:48:43.441Z,6.26
2018-12-14T10:49:43.376Z,6.25
2018-12-14T10:50:43.315Z,6.21
2018-12-14T10:51:43.255Z,6.28
2018-12-14T10:52:43.192Z,6.21
2018-12-14T10:53:43.129Z,6.26
2018-12-14T10:54:43.073Z,6.26
2018-12-14T10:55:43.006Z,6.19
2018-12-14T10:56:42.945Z,6.25
2018-12-14T10:57:42.884Z,6.28
2018-12-14T10:58:42.824Z,6.22
2018-12-14T10:59:42.757Z,6.28
2018-12-14T11:00:42.697Z,6.19
2018-12-14T11:01:42.636Z,6.26
2018-12-14T11:02:42.574Z,6.25
2018-12-14T11:03:42.511Z,6.28
2018-12-14T11:04:42.451Z,6.26
2018-12-14T11:05:42.390Z,6.29
2018-12-14T11:06:42.330Z,6.25
2018-12-14T11:07:42.265Z,6.28
2018-12-14T11:08:42.202Z,6.26
2018-12-14T11:09:42.144Z,6.25
2018-12-14T11:10:42.080Z,6.28
2018-12-14T11:11:42.016Z,6.29
2018-12-14T11:12:41.962Z,6.25
2018-12-14T11:13:41.893Z,6.30
2018-12-14T11:14:41.832Z,6.28
2018-12-14T11:15:41.771Z,6.25
2018-12-14T11:16:41.710Z,6.28
2018-12-14T11:17:41.645Z,6.28
2018-12-14T11:18:41.588Z,6.22
2018-12-14T11:19:41.526Z,6.28
2018-12-14T11:20:41.461Z,6.25
2018-12-14T11:21:41.399Z,6.26
2018-12-14T11:22:41.338Z,6.26
2018-12-14T11:23:41.582Z,6.26
2018-12-14T11:24:41.466Z,6.33
2018-12-14T11:28:44.253Z,6.22
2018-12-14T11:29:44.117Z,6.28
2018-12-14T11:31:36.884Z,6.21
2018-12-14T11:32:36.819Z,6.19
2018-12-14T11:34:30.223Z,6.21
2018-12-14T11:35:29.721Z,6.25
2018-12-14T11:37:22.504Z,6.19
2018-12-14T11:38:22.436Z,6.18
2018-12-14T11:40:15.254Z,6.28
2018-12-14T11:41:18.436Z,6.22
2018-12-14T11:43:07.925Z,6.29
2018-12-14T11:44:07.856Z,6.21
2018-12-14T11:46:00.712Z,6.25
2018-12-14T11:47:00.566Z,6.29
2018-12-14T11:48:53.372Z,6.21
2018-12-14T11:49:53.276Z,6.25
2018-12-14T11:51:46.117Z,6.25
2018-12-14T11:52:45.987Z,6.28
2018-12-14T11:54:38.844Z,6.29
2018-12-14T11:55:38.777Z,6.28
2018-12-14T11:57:32.150Z,6.28
2018-12-14T11:58:32.370Z,6.33
2018-12-14T11:59:31.924Z,6.33
2018-12-14T12:00:31.863Z,6.30
2018-12-14T12:01:31.801Z,6.30
2018-12-14T12:02:31.739Z,6.22
2018-12-14T12:03:31.678Z,6.28
2018-12-14T12:04:31.619Z,6.26
2018-12-14T12:05:33.155Z,6.19
2018-12-14T12:06:31.580Z,6.29
2018-12-14T12:07:31.463Z,6.28
2018-12-14T12:08:31.436Z,6.25
2018-12-14T12:09:31.307Z,6.29
2018-12-14T12:10:31.245Z,6.25
2018-12-14T12:11:31.186Z,6.28
2018-12-14T12:12:31.123Z,6.25
2018-12-14T12:13:31.059Z,6.28
2018-12-14T12:14:30.997Z,6.25
2018-12-14T12:15:30.937Z,6.29
2018-12-14T12:16:30.875Z,6.25
2018-12-14T12:17:30.819Z,6.26
2018-12-14T12:18:30.750Z,6.29
2018-12-14T12:19:30.691Z,6.29
2018-12-14T12:20:30.629Z,6.29
2018-12-14T12:21:30.565Z,6.26
2018-12-14T12:22:30.503Z,6.30
2018-12-14T12:23:30.444Z,6.28
2018-12-14T12:24:30.380Z,6.28
2018-12-14T12:25:30.319Z,6.29
2018-12-14T12:26:30.257Z,6.26
2018-12-14T12:27:30.196Z,6.28
2018-12-14T12:28:30.133Z,6.22
2018-12-14T12:29:30.071Z,6.22
2018-12-14T12:30:30.016Z,6.26
2018-12-14T12:31:29.950Z,6.21
2018-12-14T12:32:29.887Z,6.26
2018-12-14T12:33:29.826Z,6.32
2018-12-14T12:34:29.770Z,6.29
2018-12-14T12:35:29.706Z,6.28
2018-12-14T12:36:29.639Z,6.28
2018-12-14T12:37:29.577Z,6.32
2018-12-14T12:38:29.517Z,6.21
2018-12-14T12:39:29.460Z,6.30
2018-12-14T12:40:29.391Z,6.25
2018-12-14T12:41:29.329Z,6.26
2018-12-14T12:42:29.278Z,6.26
2018-12-14T12:43:29.212Z,6.29
2018-12-14T12:44:33.546Z,6.30
2018-12-14T12:45:29.083Z,6.28
2018-12-14T12:46:29.024Z,6.25
2018-12-14T12:47:28.961Z,6.32
2018-12-14T12:48:28.903Z,6.26
2018-12-14T12:49:28.835Z,6.29
2018-12-14T12:50:30.266Z,6.29
2018-12-14T12:51:28.717Z,6.29
2018-12-14T12:52:28.651Z,6.30
2018-12-14T12:53:28.589Z,6.25
2018-12-14T12:54:28.529Z,6.35
2018-12-14T12:55:28.467Z,6.28
2018-12-14T12:56:28.406Z,6.21
2018-12-14T12:57:28.342Z,6.22
2018-12-14T12:58:28.328Z,6.26
2018-12-14T12:59:28.219Z,6.29
2018-12-14T13:00:28.158Z,6.29
2018-12-14T13:01:28.094Z,6.29
2018-12-14T13:02:28.034Z,6.25
2018-12-14T13:03:27.974Z,6.32
2018-12-14T13:04:27.909Z,6.26
2018-12-14T13:05:27.848Z,6.30
2018-12-14T13:06:27.786Z,6.29
2018-12-14T13:07:27.726Z,6.26
2018-12-14T13:08:27.665Z,6.26
2018-12-14T13:09:27.604Z,6.35
2018-12-14T13:10:27.539Z,6.22
2018-12-14T13:11:27.477Z,6.26
2018-12-14T13:12:27.415Z,6.29
2018-12-14T13:13:27.352Z,6.29
2018-12-14T13:14:27.292Z,6.28
2018-12-14T13:15:27.231Z,6.33
2018-12-14T13:16:27.170Z,6.25
2018-12-14T13:17:27.107Z,6.26
2018-12-14T13:18:27.048Z,6.28
2018-12-14T13:19:26.983Z,6.29
2018-12-14T13:20:26.922Z,6.22
2018-12-14T13:21:26.862Z,6.29
2018-12-14T13:22:26.797Z,6.30
2018-12-14T13:23:26.739Z,6.22
2018-12-14T13:24:26.676Z,6.25
2018-12-14T13:25:26.616Z,6.32
2018-12-14T13:26:26.551Z,6.25
2018-12-14T13:27:26.499Z,6.26
2018-12-14T13:28:26.428Z,6.25
2018-12-14T13:29:26.368Z,6.29